Time;durP1;ratioP1;P1;durP2;ratioP2;P2;SDS_P1;SDS_P2;PMS_P1;PMS_P2;Temp;Humidity;BMP_temperature;BMP_pressure;BME280_temperature;BME280_humidity;BME280_pressure;Samples;Min_cycle;Max_cycle;Signal;HPM_P1;HPM_P2
2021/01/19 00:00:29;;;;;;;0.65;0.60;;;;;;;;;;5079671;28;20243;-46
2021/01/19 00:02:55;;;;;;;1.45;0.90;;;;;;;;;;5084924;28;20244;-46
2021/01/19 00:05:21;;;;;;;0.80;0.80;;;;;;;;;;5075578;28;20197;-46
2021/01/19 00:07:47;;;;;;;0.98;0.85;;;;;;;;;;5076990;28;20186;-46
2021/01/19 00:10:13;;;;;;;0.52;0.52;;;;;;;;;;5096217;28;20182;-46
2021/01/19 00:12:39;;;;;;;0.68;0.63;;;;;;;;;;5084294;28;20196;-45
2021/01/19 00:15:07;;;;;;;2.13;0.73;;;;;;;;;;5096245;28;20177;-46
2021/01/19 00:17:33;;;;;;;1.65;0.70;;;;;;;;;;5088622;28;20569;-46
2021/01/19 00:19:59;;;;;;;0.70;0.70;;;;;;;;;;5084340;28;20227;-46
2021/01/19 00:22:25;;;;;;;0.77;0.60;;;;;;;;;;5076390;28;20183;-45
2021/01/19 00:24:51;;;;;;;0.85;0.70;;;;;;;;;;5084275;28;20188;-45
2021/01/19 00:27:16;;;;;;;0.52;0.45;;;;;;;;;;5090380;28;20200;-45
2021/01/19 00:29:42;;;;;;;0.73;0.73;;;;;;;;;;5076073;28;20181;-45
2021/01/19 00:32:08;;;;;;;0.65;0.55;;;;;;;;;;5091327;28;20186;-45
2021/01/19 00:34:34;;;;;;;1.38;0.70;;;;;;;;;;5075071;28;20237;-45
2021/01/19 00:37:00;;;;;;;0.55;0.52;;;;;;;;;;5086498;28;20186;-45
2021/01/19 00:39:27;;;;;;;1.58;0.80;;;;;;;;;;5093204;28;20181;-45
2021/01/19 00:41:52;;;;;;;0.90;0.60;;;;;;;;;;5078435;28;20194;-45
2021/01/19 00:44:18;;;;;;;0.40;0.40;;;;;;;;;;5095345;28;20265;-45
2021/01/19 00:46:44;;;;;;;0.60;0.60;;;;;;;;;;5088730;28;20545;-45
2021/01/19 00:49:11;;;;;;;0.90;0.60;;;;;;;;;;5091065;28;20193;-46
2021/01/19 00:51:37;;;;;;;1.05;0.60;;;;;;;;;;5112261;28;20185;-45
2021/01/19 00:54:04;;;;;;;0.70;0.52;;;;;;;;;;5079732;28;20647;-45
2021/01/19 00:56:37;;;;;;;0.65;0.65;;;;;;;;;;5076143;28;20182;-45
2021/01/19 00:59:03;;;;;;;1.27;0.70;;;;;;;;;;5075441;28;20186;-45
2021/01/19 01:01:29;;;;;;;1.05;0.70;;;;;;;;;;5086319;28;20206;-45
2021/01/19 01:03:55;;;;;;;0.68;0.40;;;;;;;;;;5078671;28;20181;-45
2021/01/19 01:06:21;;;;;;;0.70;0.70;;;;;;;;;;5074408;28;20445;-46
2021/01/19 01:08:47;;;;;;;0.60;0.60;;;;;;;;;;5093122;28;20193;-45
2021/01/19 01:11:13;;;;;;;0.50;0.50;;;;;;;;;;5095088;28;20258;-45
2021/01/19 01:13:39;;;;;;;0.47;0.47;;;;;;;;;;5091181;28;20296;-45
2021/01/19 01:16:14;;;;;;;0.55;0.55;;;;;;;;;;5094822;28;20170;-45
2021/01/19 01:18:40;;;;;;;0.60;0.60;;;;;;;;;;5093526;28;20194;-45
2021/01/19 01:21:10;;;;;;;0.70;0.60;;;;;;;;;;5096605;28;20503;-45
2021/01/19 01:23:36;;;;;;;0.70;0.70;;;;;;;;;;5089763;28;20564;-45
2021/01/19 01:26:02;;;;;;;0.60;0.60;;;;;;;;;;5074802;28;20244;-46
2021/01/19 01:28:27;;;;;;;0.60;0.60;;;;;;;;;;5084583;28;20185;-46
2021/01/19 01:30:53;;;;;;;0.93;0.70;;;;;;;;;;5095218;28;20178;-46
2021/01/19 01:33:19;;;;;;;0.60;0.60;;;;;;;;;;5082803;28;20206;-46
2021/01/19 01:35:45;;;;;;;0.50;0.50;;;;;;;;;;5075814;28;20170;-46
2021/01/19 01:38:11;;;;;;;0.50;0.50;;;;;;;;;;5092970;28;20217;-45
2021/01/19 01:40:37;;;;;;;0.50;0.50;;;;;;;;;;5078918;28;20183;-45
2021/01/19 01:43:10;;;;;;;1.15;0.65;;;;;;;;;;5083273;28;20188;-46
2021/01/19 01:45:36;;;;;;;0.65;0.55;;;;;;;;;;5093989;28;20207;-46
2021/01/19 01:48:02;;;;;;;0.50;0.50;;;;;;;;;;5090202;28;20185;-46
2021/01/19 01:50:28;;;;;;;0.68;0.68;;;;;;;;;;5094336;28;20189;-46
2021/01/19 01:52:55;;;;;;;0.60;0.60;;;;;;;;;;5083432;28;20230;-46
2021/01/19 01:55:21;;;;;;;0.60;0.60;;;;;;;;;;5073331;28;20170;-46
2021/01/19 01:57:48;;;;;;;0.50;0.50;;;;;;;;;;5079257;28;20178;-45
2021/01/19 02:00:15;;;;;;;0.98;0.70;;;;;;;;;;5080827;28;20185;-46
2021/01/19 02:02:51;;;;;;;0.40;0.40;;;;;;;;;;5092415;28;20186;-46
2021/01/19 02:05:17;;;;;;;0.40;0.40;;;;;;;;;;5093760;28;20174;-45
2021/01/19 02:08:01;;;;;;;0.65;0.50;;;;;;;;;;5091012;28;20182;-45
2021/01/19 02:10:30;;;;;;;0.50;0.50;;;;;;;;;;5092492;28;20592;-45
2021/01/19 02:13:18;;;;;;;1.05;0.50;;;;;;;;;;5086819;28;20641;-45
2021/01/19 02:16:00;;;;;;;0.50;0.50;;;;;;;;;;5073683;28;20183;-45
2021/01/19 02:18:29;;;;;;;0.38;0.38;;;;;;;;;;5074833;28;20186;-45
2021/01/19 02:21:27;;;;;;;0.50;0.50;;;;;;;;;;5092784;28;20221;-45
2021/01/19 02:24:03;;;;;;;0.70;0.55;;;;;;;;;;5090468;28;20205;-45
2021/01/19 02:26:49;;;;;;;0.50;0.50;;;;;;;;;;5092845;28;20185;-45
2021/01/19 02:29:14;;;;;;;0.55;0.55;;;;;;;;;;5077468;28;20579;-45
2021/01/19 02:31:51;;;;;;;1.88;0.45;;;;;;;;;;5075429;28;20214;-45
2021/01/19 02:34:21;;;;;;;0.55;0.55;;;;;;;;;;5081572;28;20282;-45
2021/01/19 02:36:53;;;;;;;0.73;0.50;;;;;;;;;;5092271;28;20200;-45
2021/01/19 02:39:37;;;;;;;0.55;0.55;;;;;;;;;;5090895;28;20264;-45
2021/01/19 02:42:05;;;;;;;0.68;0.60;;;;;;;;;;5093532;28;20178;-45
2021/01/19 02:44:32;;;;;;;0.50;0.50;;;;;;;;;;5074133;28;20194;-45
2021/01/19 02:46:59;;;;;;;0.50;0.47;;;;;;;;;;5080443;28;20178;-45
2021/01/19 02:49:25;;;;;;;0.63;0.57;;;;;;;;;;5085611;28;20452;-45
2021/01/19 02:51:52;;;;;;;0.60;0.60;;;;;;;;;;5108188;28;20188;-45
2021/01/19 02:54:19;;;;;;;1.00;0.60;;;;;;;;;;5093097;28;20466;-45
2021/01/19 02:56:48;;;;;;;0.95;0.60;;;;;;;;;;5084770;28;20549;-45
2021/01/19 02:59:20;;;;;;;0.50;0.50;;;;;;;;;;5091700;28;20182;-45
2021/01/19 03:02:06;;;;;;;0.90;0.63;;;;;;;;;;5092777;28;20614;-45
2021/01/19 03:04:33;;;;;;;0.63;0.60;;;;;;;;;;5077700;28;20194;-45
2021/01/19 03:07:03;;;;;;;0.70;0.70;;;;;;;;;;5083482;28;20190;-45
2021/01/19 03:09:30;;;;;;;0.70;0.50;;;;;;;;;;5097252;28;21057;-46
2021/01/19 03:11:56;;;;;;;0.50;0.50;;;;;;;;;;5079441;28;20189;-45
2021/01/19 03:14:22;;;;;;;0.63;0.50;;;;;;;;;;5096791;28;20308;-45
2021/01/19 03:16:49;;;;;;;0.55;0.50;;;;;;;;;;5090210;28;20190;-45
2021/01/19 03:19:17;;;;;;;0.50;0.47;;;;;;;;;;5099357;28;20185;-45
2021/01/19 03:21:43;;;;;;;0.50;0.50;;;;;;;;;;5115058;28;20165;-45
2021/01/19 03:24:09;;;;;;;0.50;0.50;;;;;;;;;;5076833;28;20178;-45
2021/01/19 03:26:35;;;;;;;0.50;0.50;;;;;;;;;;5081809;28;20190;-45
2021/01/19 03:29:01;;;;;;;0.47;0.47;;;;;;;;;;5093876;28;20268;-45
2021/01/19 03:31:27;;;;;;;0.70;0.57;;;;;;;;;;5096997;28;20227;-45
2021/01/19 03:33:53;;;;;;;1.42;0.73;;;;;;;;;;5078359;28;20259;-46
2021/01/19 03:36:19;;;;;;;0.40;0.40;;;;;;;;;;5078632;28;20482;-45
2021/01/19 03:38:45;;;;;;;1.90;0.57;;;;;;;;;;5082103;28;20190;-45
2021/01/19 03:41:11;;;;;;;0.47;0.47;;;;;;;;;;5080851;28;20185;-45
2021/01/19 03:43:37;;;;;;;0.50;0.50;;;;;;;;;;5097316;28;20239;-45
2021/01/19 03:46:03;;;;;;;0.60;0.60;;;;;;;;;;5094269;28;20178;-45
2021/01/19 03:48:29;;;;;;;0.50;0.45;;;;;;;;;;5080901;28;20216;-46
2021/01/19 03:50:55;;;;;;;0.55;0.55;;;;;;;;;;5095418;28;20185;-46
2021/01/19 03:53:21;;;;;;;0.52;0.40;;;;;;;;;;5092925;28;20210;-46
2021/01/19 03:55:47;;;;;;;0.60;0.60;;;;;;;;;;5095527;28;20223;-46
2021/01/19 03:58:13;;;;;;;0.55;0.55;;;;;;;;;;5089519;28;20240;-45
2021/01/19 04:00:39;;;;;;;1.67;0.60;;;;;;;;;;5090322;28;20186;-45
2021/01/19 04:03:05;;;;;;;0.50;0.50;;;;;;;;;;5088825;28;20205;-45
2021/01/19 04:05:31;;;;;;;0.70;0.50;;;;;;;;;;5095757;28;20464;-45
2021/01/19 04:07:57;;;;;;;0.40;0.40;;;;;;;;;;5088398;28;20573;-45
2021/01/19 04:10:23;;;;;;;0.52;0.52;;;;;;;;;;5096474;28;20506;-45
2021/01/19 04:12:49;;;;;;;0.50;0.50;;;;;;;;;;5094781;28;20193;-45
2021/01/19 04:15:15;;;;;;;1.10;0.63;;;;;;;;;;5086982;28;20561;-45
2021/01/19 04:17:41;;;;;;;0.63;0.60;;;;;;;;;;5096301;28;20190;-45
2021/01/19 04:20:08;;;;;;;0.65;0.57;;;;;;;;;;5109942;28;20213;-45
2021/01/19 04:22:34;;;;;;;0.50;0.50;;;;;;;;;;5099223;28;20236;-45
2021/01/19 04:25:00;;;;;;;1.00;0.50;;;;;;;;;;5091820;28;20216;-45
2021/01/19 04:27:26;;;;;;;0.70;0.68;;;;;;;;;;5088920;28;20182;-45
2021/01/19 04:29:52;;;;;;;0.85;0.60;;;;;;;;;;5090263;28;20609;-45
2021/01/19 04:32:18;;;;;;;0.88;0.70;;;;;;;;;;5095831;28;20261;-45
2021/01/19 04:34:44;;;;;;;0.80;0.60;;;;;;;;;;5081470;28;20454;-45
2021/01/19 04:37:10;;;;;;;0.75;0.60;;;;;;;;;;5079813;28;20192;-46
2021/01/19 04:39:36;;;;;;;0.40;0.40;;;;;;;;;;5096281;28;20182;-46
2021/01/19 04:42:02;;;;;;;0.50;0.50;;;;;;;;;;5096225;28;20289;-46
2021/01/19 04:44:29;;;;;;;1.35;0.63;;;;;;;;;;5087134;28;20197;-46
2021/01/19 04:46:55;;;;;;;0.95;0.60;;;;;;;;;;5094116;28;20552;-46
2021/01/19 04:49:21;;;;;;;0.85;0.52;;;;;;;;;;5096308;28;20178;-46
2021/01/19 04:51:48;;;;;;;0.30;0.30;;;;;;;;;;5091119;28;20265;-46
2021/01/19 04:54:18;;;;;;;0.70;0.63;;;;;;;;;;5083570;28;20198;-45
2021/01/19 04:56:50;;;;;;;0.77;0.60;;;;;;;;;;5095181;28;20192;-45
2021/01/19 04:59:21;;;;;;;1.02;0.68;;;;;;;;;;5093412;28;20202;-45
2021/01/19 05:01:53;;;;;;;0.73;0.60;;;;;;;;;;5091476;28;20510;-45
2021/01/19 05:04:38;;;;;;;1.17;0.70;;;;;;;;;;5077606;28;20197;-45
2021/01/19 05:07:07;;;;;;;1.30;0.75;;;;;;;;;;5080566;28;20181;-45
2021/01/19 05:09:36;;;;;;;0.50;0.50;;;;;;;;;;5095355;28;20170;-45
2021/01/19 05:12:05;;;;;;;0.85;0.63;;;;;;;;;;5094808;28;20201;-46
2021/01/19 05:14:38;;;;;;;0.70;0.60;;;;;;;;;;5081764;28;20206;-55
2021/01/19 05:17:05;;;;;;;8.48;2.45;;;;;;;;;;5083587;28;20227;-46
2021/01/19 05:19:31;;;;;;;19.23;5.20;;;;;;;;;;5086532;28;20456;-46
2021/01/19 05:21:57;;;;;;;15.27;4.25;;;;;;;;;;5091378;28;20170;-46
2021/01/19 05:24:26;;;;;;;17.15;3.80;;;;;;;;;;5084999;28;20231;-46
2021/01/19 05:26:52;;;;;;;12.52;3.42;;;;;;;;;;5090710;28;20209;-46
2021/01/19 05:29:18;;;;;;;7.95;2.85;;;;;;;;;;5094448;28;20265;-46
2021/01/19 05:31:50;;;;;;;10.45;2.95;;;;;;;;;;5077919;28;20519;-46
2021/01/19 05:34:16;;;;;;;11.05;2.58;;;;;;;;;;5085726;28;20453;-46
2021/01/19 05:36:46;;;;;;;11.82;3.00;;;;;;;;;;5088043;28;20589;-46
2021/01/19 05:39:14;;;;;;;13.35;2.70;;;;;;;;;;5079062;28;20174;-47
2021/01/19 05:41:41;;;;;;;8.45;2.60;;;;;;;;;;5089283;28;20196;-46
2021/01/19 05:44:11;;;;;;;9.38;2.95;;;;;;;;;;5090329;28;20177;-46
2021/01/19 05:46:41;;;;;;;9.80;2.42;;;;;;;;;;5076156;28;20581;-46
2021/01/19 05:49:07;;;;;;;7.18;2.10;;;;;;;;;;5074401;28;20180;-46
2021/01/19 05:51:33;;;;;;;9.82;2.40;;;;;;;;;;5078618;28;20592;-46
2021/01/19 05:54:00;;;;;;;10.10;2.63;;;;;;;;;;5073472;28;20214;-46
2021/01/19 05:56:27;;;;;;;9.40;2.42;;;;;;;;;;5080413;28;20201;-46
2021/01/19 05:58:54;;;;;;;8.25;2.50;;;;;;;;;;5083333;28;20441;-46
2021/01/19 06:01:28;;;;;;;5.82;2.22;;;;;;;;;;5084574;28;20217;-46
2021/01/19 06:03:58;;;;;;;6.80;2.50;;;;;;;;;;5074214;28;20190;-46
2021/01/19 06:06:26;;;;;;;7.38;2.70;;;;;;;;;;5087364;28;20534;-46
2021/01/19 06:08:59;;;;;;;7.35;2.58;;;;;;;;;;5093300;28;20265;-46
2021/01/19 06:11:26;;;;;;;8.82;2.22;;;;;;;;;;5084052;28;20221;-46
2021/01/19 06:13:52;;;;;;;6.68;1.80;;;;;;;;;;5087269;28;20266;-46
2021/01/19 06:16:21;;;;;;;8.38;2.22;;;;;;;;;;5091935;28;20206;-46
2021/01/19 06:18:47;;;;;;;6.95;1.98;;;;;;;;;;5093930;28;20182;-46
2021/01/19 06:21:35;;;;;;;5.57;2.10;;;;;;;;;;5080029;28;20182;-46
2021/01/19 06:24:01;;;;;;;5.82;1.80;;;;;;;;;;5073715;28;20569;-46
2021/01/19 06:26:28;;;;;;;5.97;2.00;;;;;;;;;;5077112;28;20186;-46
2021/01/19 06:28:54;;;;;;;3.33;1.65;;;;;;;;;;5074550;28;20204;-46
2021/01/19 06:31:21;;;;;;;8.07;2.25;;;;;;;;;;5074534;28;20497;-46
2021/01/19 06:33:47;;;;;;;4.63;1.80;;;;;;;;;;5087767;28;20250;-46
2021/01/19 06:36:15;;;;;;;3.80;1.92;;;;;;;;;;5091646;28;20178;-46
2021/01/19 06:38:48;;;;;;;5.80;1.73;;;;;;;;;;5074003;28;20623;-46
2021/01/19 06:41:16;;;;;;;3.67;1.98;;;;;;;;;;5072745;28;20750;-46
2021/01/19 06:43:44;;;;;;;4.70;1.60;;;;;;;;;;5073950;28;20561;-47
2021/01/19 06:46:11;;;;;;;3.72;1.70;;;;;;;;;;5073350;28;20510;-46
2021/01/19 06:48:40;;;;;;;4.88;1.92;;;;;;;;;;5074386;28;20467;-46
2021/01/19 06:51:10;;;;;;;5.65;1.80;;;;;;;;;;5093104;28;20257;-46
2021/01/19 06:53:46;;;;;;;4.53;1.73;;;;;;;;;;5081588;28;20205;-46
2021/01/19 06:56:12;;;;;;;3.85;1.33;;;;;;;;;;5077650;28;20577;-46
2021/01/19 06:58:47;;;;;;;3.90;1.40;;;;;;;;;;5073048;28;20178;-46
2021/01/19 07:01:14;;;;;;;4.18;1.50;;;;;;;;;;5073779;28;20627;-46
2021/01/19 07:03:42;;;;;;;2.42;1.50;;;;;;;;;;5074896;28;20202;-46
2021/01/19 07:06:09;;;;;;;4.72;1.50;;;;;;;;;;5072798;28;20553;-46
2021/01/19 07:08:41;;;;;;;4.47;1.55;;;;;;;;;;5074052;28;20194;-46
2021/01/19 07:11:14;;;;;;;2.38;1.33;;;;;;;;;;5084686;28;20226;-46
2021/01/19 07:13:42;;;;;;;2.42;1.23;;;;;;;;;;5076821;28;20235;-46
2021/01/19 07:16:09;;;;;;;4.53;1.55;;;;;;;;;;5091122;28;20452;-46
2021/01/19 07:18:44;;;;;;;2.97;1.42;;;;;;;;;;5076287;28;20314;-46
2021/01/19 07:21:13;;;;;;;3.55;1.42;;;;;;;;;;5073022;28;20549;-46
2021/01/19 07:23:41;;;;;;;2.38;1.10;;;;;;;;;;5081150;28;20565;-46
2021/01/19 07:26:07;;;;;;;3.25;1.60;;;;;;;;;;5072293;28;20544;-46
2021/01/19 07:28:34;;;;;;;2.67;1.17;;;;;;;;;;5079313;28;20185;-46
2021/01/19 07:31:00;;;;;;;2.72;1.10;;;;;;;;;;5086558;28;20656;-46
2021/01/19 07:33:26;;;;;;;2.83;1.30;;;;;;;;;;5075796;28;20286;-46
2021/01/19 07:35:52;;;;;;;2.00;1.10;;;;;;;;;;5073900;28;20183;-46
2021/01/19 07:38:23;;;;;;;3.88;1.73;;;;;;;;;;5082816;28;20174;-46
2021/01/19 07:40:49;;;;;;;2.40;1.30;;;;;;;;;;5072867;28;20257;-46
2021/01/19 07:43:21;;;;;;;2.95;1.25;;;;;;;;;;5072681;28;20271;-46
2021/01/19 07:45:51;;;;;;;2.53;1.45;;;;;;;;;;5072627;28;20185;-46
2021/01/19 07:48:28;;;;;;;1.55;1.00;;;;;;;;;;5073486;28;20170;-46
2021/01/19 07:50:54;;;;;;;3.08;1.00;;;;;;;;;;5097623;28;20182;-46
2021/01/19 07:53:20;;;;;;;1.58;1.30;;;;;;;;;;5084287;28;20186;-46
2021/01/19 07:55:46;;;;;;;3.28;1.30;;;;;;;;;;5089595;28;20179;-46
2021/01/19 07:58:22;;;;;;;3.00;1.20;;;;;;;;;;5088253;28;20177;-46
2021/01/19 08:00:57;;;;;;;2.63;1.02;;;;;;;;;;5096784;28;20443;-46
2021/01/19 08:03:30;;;;;;;3.22;1.10;;;;;;;;;;5075957;28;20210;-46
2021/01/19 08:06:07;;;;;;;1.73;1.10;;;;;;;;;;5075778;28;20533;-46
2021/01/19 08:08:37;;;;;;;2.85;0.90;;;;;;;;;;5075994;28;20478;-46
2021/01/19 08:11:03;;;;;;;1.00;0.90;;;;;;;;;;5076191;28;20202;-46
2021/01/19 08:13:29;;;;;;;2.00;0.98;;;;;;;;;;5079505;28;20212;-47
2021/01/19 08:16:06;;;;;;;1.98;1.17;;;;;;;;;;5095955;28;20170;-45
2021/01/19 08:18:39;;;;;;;1.55;0.90;;;;;;;;;;5099579;28;20181;-46
2021/01/19 08:21:06;;;;;;;3.00;1.20;;;;;;;;;;5083769;28;20174;-46
2021/01/19 08:23:33;;;;;;;1.80;1.10;;;;;;;;;;5086941;28;20468;-46
2021/01/19 08:26:09;;;;;;;2.90;1.20;;;;;;;;;;5075148;28;20519;-46
2021/01/19 08:28:37;;;;;;;2.08;0.93;;;;;;;;;;5080311;28;20256;-46
2021/01/19 08:31:03;;;;;;;1.75;1.00;;;;;;;;;;5095718;28;20190;-46
2021/01/19 08:33:31;;;;;;;1.77;1.45;;;;;;;;;;5077615;28;20214;-46
2021/01/19 08:35:58;;;;;;;2.15;0.80;;;;;;;;;;5075367;28;20202;-46
2021/01/19 08:38:25;;;;;;;4.28;1.30;;;;;;;;;;5083562;28;20213;-46
2021/01/19 08:40:51;;;;;;;2.42;0.88;;;;;;;;;;5096149;28;20174;-46
2021/01/19 08:43:18;;;;;;;3.28;1.02;;;;;;;;;;5094577;28;20209;-46
2021/01/19 08:45:45;;;;;;;3.03;1.00;;;;;;;;;;5075250;28;20615;-46
2021/01/19 08:48:11;;;;;;;1.52;0.70;;;;;;;;;;5080893;28;20178;-46
2021/01/19 08:50:38;;;;;;;1.08;0.80;;;;;;;;;;5110187;28;20209;-45
2021/01/19 08:53:11;;;;;;;1.92;1.10;;;;;;;;;;5093560;28;20459;-46
2021/01/19 08:55:37;;;;;;;1.95;1.08;;;;;;;;;;5094308;28;20197;-46
2021/01/19 08:58:04;;;;;;;1.17;0.80;;;;;;;;;;5089596;28;20185;-46
2021/01/19 09:00:34;;;;;;;2.00;0.82;;;;;;;;;;5079905;28;20456;-46
2021/01/19 09:03:00;;;;;;;1.65;0.93;;;;;;;;;;5078253;28;20170;-46
2021/01/19 09:05:30;;;;;;;1.63;1.10;;;;;;;;;;5073576;28;20253;-46
2021/01/19 09:07:57;;;;;;;2.85;0.93;;;;;;;;;;5073974;28;20171;-46
2021/01/19 09:10:27;;;;;;;3.22;1.00;;;;;;;;;;5074544;28;20212;-46
2021/01/19 09:12:53;;;;;;;1.55;0.82;;;;;;;;;;5075331;28;20199;-46
2021/01/19 09:15:19;;;;;;;2.80;1.10;;;;;;;;;;5074517;28;20171;-46
2021/01/19 09:17:55;;;;;;;2.80;1.10;;;;;;;;;;5074880;28;20175;-46
2021/01/19 09:20:23;;;;;;;3.45;1.25;;;;;;;;;;5114717;28;20579;-46
2021/01/19 09:22:49;;;;;;;2.95;1.13;;;;;;;;;;5115422;28;20254;-46
2021/01/19 09:25:18;;;;;;;1.85;1.10;;;;;;;;;;5114646;28;20211;-46
2021/01/19 09:27:45;;;;;;;2.28;1.25;;;;;;;;;;5115225;28;20180;-46
2021/01/19 09:30:12;;;;;;;1.92;1.40;;;;;;;;;;5115094;28;20170;-46
2021/01/19 09:32:39;;;;;;;4.15;1.70;;;;;;;;;;5100282;28;20192;-45
2021/01/19 09:35:05;;;;;;;3.25;1.60;;;;;;;;;;5094143;28;20636;-46
2021/01/19 09:37:31;;;;;;;2.50;1.50;;;;;;;;;;5094231;28;20176;-46
2021/01/19 09:39:57;;;;;;;2.53;1.50;;;;;;;;;;5094964;28;20452;-46
2021/01/19 09:42:23;;;;;;;2.60;1.30;;;;;;;;;;5094295;28;20236;-47
2021/01/19 09:44:49;;;;;;;2.72;1.33;;;;;;;;;;5094276;28;20512;-46
2021/01/19 09:47:16;;;;;;;2.70;1.52;;;;;;;;;;5094036;28;20178;-46
2021/01/19 09:49:43;;;;;;;4.40;1.67;;;;;;;;;;5094923;28;20182;-46
2021/01/19 09:52:13;;;;;;;2.60;1.50;;;;;;;;;;5092512;28;20181;-46
2021/01/19 09:54:39;;;;;;;2.78;1.30;;;;;;;;;;5093970;28;20194;-46
2021/01/19 09:57:07;;;;;;;3.60;1.67;;;;;;;;;;5094763;28;20598;-46
2021/01/19 09:59:33;;;;;;;4.00;1.33;;;;;;;;;;5093794;28;20174;-46
2021/01/19 10:02:00;;;;;;;3.45;1.70;;;;;;;;;;5094462;28;20173;-46
2021/01/19 10:04:26;;;;;;;3.30;1.80;;;;;;;;;;5090892;28;20211;-46
2021/01/19 10:07:03;;;;;;;5.18;1.50;;;;;;;;;;5087778;28;20170;-46
2021/01/19 10:09:29;;;;;;;5.63;1.83;;;;;;;;;;5085130;28;20186;-46
2021/01/19 10:11:56;;;;;;;3.50;1.58;;;;;;;;;;5076030;28;20221;-46
2021/01/19 10:14:22;;;;;;;3.88;1.48;;;;;;;;;;5078566;28;20206;-46
2021/01/19 10:16:48;;;;;;;3.80;1.65;;;;;;;;;;5075339;28;20178;-46
2021/01/19 10:19:23;;;;;;;4.53;1.42;;;;;;;;;;5080187;28;20178;-46
2021/01/19 10:21:50;;;;;;;1.80;1.20;;;;;;;;;;5107968;28;20173;-46
2021/01/19 10:24:17;;;;;;;4.97;1.65;;;;;;;;;;5086511;28;20264;-46
2021/01/19 10:27:02;;;;;;;3.58;1.65;;;;;;;;;;5083271;28;20188;-46
2021/01/19 10:29:29;;;;;;;5.93;1.40;;;;;;;;;;5074061;28;20178;-46
2021/01/19 10:31:59;;;;;;;4.85;1.70;;;;;;;;;;5075268;28;20265;-46
2021/01/19 10:34:26;;;;;;;2.80;1.50;;;;;;;;;;5077903;28;20216;-46
2021/01/19 10:36:53;;;;;;;2.58;1.55;;;;;;;;;;5073733;28;20766;-46
2021/01/19 10:39:20;;;;;;;2.83;1.40;;;;;;;;;;5073308;28;20213;-46
2021/01/19 10:41:47;;;;;;;3.45;1.30;;;;;;;;;;5086985;28;20248;-46
2021/01/19 10:44:13;;;;;;;2.40;1.70;;;;;;;;;;5074063;28;20470;-46
2021/01/19 10:46:40;;;;;;;2.13;1.40;;;;;;;;;;5074831;28;20259;-46
2021/01/19 10:49:07;;;;;;;2.08;1.33;;;;;;;;;;5076616;28;20489;-46
2021/01/19 10:51:34;;;;;;;3.78;1.70;;;;;;;;;;5087514;28;20201;-46
2021/01/19 10:54:03;;;;;;;5.35;1.95;;;;;;;;;;5083513;28;20242;-46
2021/01/19 10:56:29;;;;;;;4.18;1.70;;;;;;;;;;5088454;28;20193;-46
2021/01/19 10:58:55;;;;;;;4.95;2.38;;;;;;;;;;5090261;28;20268;-46
2021/01/19 11:01:21;;;;;;;3.60;1.80;;;;;;;;;;5092511;28;20261;-46
2021/01/19 11:03:47;;;;;;;5.05;2.20;;;;;;;;;;5085583;28;20259;-46
2021/01/19 11:06:13;;;;;;;4.72;1.85;;;;;;;;;;5084072;28;20190;-46
2021/01/19 11:08:39;;;;;;;3.40;1.60;;;;;;;;;;5080526;28;20272;-46
2021/01/19 11:11:05;;;;;;;4.97;1.85;;;;;;;;;;5085534;28;20293;-46
2021/01/19 11:13:31;;;;;;;2.70;1.65;;;;;;;;;;5074991;28;20664;-46
2021/01/19 11:15:58;;;;;;;3.10;1.60;;;;;;;;;;5079354;28;20182;-46
2021/01/19 11:18:24;;;;;;;5.10;1.75;;;;;;;;;;5078068;28;20179;-46
2021/01/19 11:20:50;;;;;;;3.17;1.70;;;;;;;;;;5080888;28;20320;-46
2021/01/19 11:23:16;;;;;;;5.38;1.80;;;;;;;;;;5080853;28;20562;-46
2021/01/19 11:25:42;;;;;;;2.42;1.50;;;;;;;;;;5079022;28;20186;-46
2021/01/19 11:28:07;;;;;;;3.40;1.58;;;;;;;;;;5080147;28;20222;-46
2021/01/19 11:30:33;;;;;;;1.70;1.25;;;;;;;;;;5083108;28;20177;-46
2021/01/19 11:33:00;;;;;;;2.35;1.33;;;;;;;;;;5092308;28;20719;-46
2021/01/19 11:35:26;;;;;;;3.22;1.40;;;;;;;;;;5089655;28;20178;-46
2021/01/19 11:37:55;;;;;;;1.98;1.48;;;;;;;;;;5100902;28;20193;-46
2021/01/19 11:40:21;;;;;;;3.15;1.60;;;;;;;;;;5076399;28;20171;-46
2021/01/19 11:42:47;;;;;;;2.60;1.40;;;;;;;;;;5083853;28;20195;-46
2021/01/19 11:45:13;;;;;;;3.20;1.35;;;;;;;;;;5088819;28;20178;-45
2021/01/19 11:47:39;;;;;;;2.53;1.13;;;;;;;;;;5087617;28;20187;-45
2021/01/19 11:50:06;;;;;;;1.95;1.10;;;;;;;;;;5084989;28;20183;-45
2021/01/19 11:52:32;;;;;;;3.42;1.67;;;;;;;;;;5081219;28;20264;-45
2021/01/19 11:54:58;;;;;;;2.78;1.42;;;;;;;;;;5085588;28;20253;-45
2021/01/19 11:57:24;;;;;;;4.68;1.38;;;;;;;;;;5085402;28;20178;-45
2021/01/19 11:59:50;;;;;;;3.80;1.45;;;;;;;;;;5094820;28;20178;-45
2021/01/19 12:02:16;;;;;;;1.85;1.13;;;;;;;;;;5090670;28;20185;-45
2021/01/19 12:04:42;;;;;;;2.00;1.00;;;;;;;;;;5080150;28;20232;-45
2021/01/19 12:07:08;;;;;;;2.75;1.58;;;;;;;;;;5086801;28;20182;-45
2021/01/19 12:09:35;;;;;;;1.23;1.08;;;;;;;;;;5086849;28;20264;-45
2021/01/19 12:12:01;;;;;;;1.75;1.20;;;;;;;;;;5084161;28;20464;-45
2021/01/19 12:14:27;;;;;;;1.95;1.10;;;;;;;;;;5091497;28;20209;-48
2021/01/19 12:16:53;;;;;;;1.75;1.10;;;;;;;;;;5096480;28;20311;-46
2021/01/19 12:19:19;;;;;;;2.65;1.10;;;;;;;;;;5095340;28;20261;-45
2021/01/19 12:21:53;;;;;;;2.42;1.60;;;;;;;;;;5087095;28;20177;-45
2021/01/19 12:24:19;;;;;;;3.78;1.27;;;;;;;;;;5093601;28;20186;-45
2021/01/19 12:26:45;;;;;;;2.22;1.13;;;;;;;;;;5077198;28;20213;-45
2021/01/19 12:29:12;;;;;;;3.72;1.80;;;;;;;;;;5094334;28;20181;-45
2021/01/19 12:31:38;;;;;;;1.45;1.10;;;;;;;;;;5078950;28;20186;-45
2021/01/19 12:34:04;;;;;;;3.85;1.70;;;;;;;;;;5076776;28;20241;-45
2021/01/19 12:36:30;;;;;;;4.68;1.70;;;;;;;;;;5091819;28;20174;-45
2021/01/19 12:38:57;;;;;;;4.35;1.52;;;;;;;;;;5082807;28;20176;-45
2021/01/19 12:41:24;;;;;;;3.72;1.13;;;;;;;;;;5095340;28;20416;-45
2021/01/19 12:43:49;;;;;;;2.72;1.27;;;;;;;;;;5095735;28;20463;-45
2021/01/19 12:46:17;;;;;;;4.43;1.42;;;;;;;;;;5094812;28;20225;-45
2021/01/19 12:48:43;;;;;;;4.60;1.45;;;;;;;;;;5095624;28;20630;-45
2021/01/19 12:51:16;;;;;;;3.30;1.35;;;;;;;;;;5095696;28;20185;-44
2021/01/19 12:53:42;;;;;;;4.47;1.30;;;;;;;;;;5075300;28;20289;-45
2021/01/19 12:56:12;;;;;;;2.92;1.38;;;;;;;;;;5083470;28;20178;-45
2021/01/19 12:58:38;;;;;;;2.70;1.13;;;;;;;;;;5080189;28;20471;-45
2021/01/19 13:01:04;;;;;;;3.50;1.17;;;;;;;;;;5094037;28;20201;-45
2021/01/19 13:03:30;;;;;;;3.03;1.27;;;;;;;;;;5083895;28;20642;-45
2021/01/19 13:05:57;;;;;;;2.25;1.10;;;;;;;;;;5078313;28;20186;-45
2021/01/19 13:08:23;;;;;;;2.38;1.13;;;;;;;;;;5094107;28;20454;-45
2021/01/19 13:10:49;;;;;;;1.95;1.02;;;;;;;;;;5095607;28;20418;-45
2021/01/19 13:13:16;;;;;;;1.30;0.82;;;;;;;;;;5080865;28;20230;-45
2021/01/19 13:15:42;;;;;;;1.33;1.00;;;;;;;;;;5088647;28;20537;-45
2021/01/19 13:18:08;;;;;;;2.50;1.10;;;;;;;;;;5095017;28;20189;-45
2021/01/19 13:20:34;;;;;;;0.95;0.82;;;;;;;;;;5110899;28;20188;-45
2021/01/19 13:23:00;;;;;;;1.35;1.05;;;;;;;;;;5098992;28;20241;-45
2021/01/19 13:25:26;;;;;;;2.20;1.13;;;;;;;;;;5092002;28;20188;-45
2021/01/19 13:27:52;;;;;;;3.03;1.08;;;;;;;;;;5093593;28;20763;-45
2021/01/19 13:30:19;;;;;;;1.95;1.33;;;;;;;;;;5094304;28;20181;-45
2021/01/19 13:32:45;;;;;;;1.70;0.90;;;;;;;;;;5095016;28;20185;-45
2021/01/19 13:35:11;;;;;;;2.35;1.10;;;;;;;;;;5094020;28;20596;-45
2021/01/19 13:37:37;;;;;;;1.95;1.00;;;;;;;;;;5094851;28;20249;-45
2021/01/19 13:40:04;;;;;;;1.40;0.80;;;;;;;;;;5094859;28;20503;-45
2021/01/19 13:42:30;;;;;;;1.83;0.85;;;;;;;;;;5094344;28;20190;-45
2021/01/19 13:44:56;;;;;;;1.42;1.10;;;;;;;;;;5094199;28;20182;-45
2021/01/19 13:47:22;;;;;;;0.88;0.77;;;;;;;;;;5094295;28;20184;-45
2021/01/19 13:49:48;;;;;;;0.85;0.70;;;;;;;;;;5102154;28;20451;-45
2021/01/19 13:52:14;;;;;;;1.27;0.60;;;;;;;;;;5100162;28;20557;-45
2021/01/19 13:54:40;;;;;;;2.67;0.90;;;;;;;;;;5087203;28;20198;-45
2021/01/19 13:57:06;;;;;;;1.15;0.70;;;;;;;;;;5093495;28;20503;-45
2021/01/19 13:59:32;;;;;;;0.90;0.80;;;;;;;;;;5093476;28;20187;-46
2021/01/19 14:01:58;;;;;;;1.13;0.90;;;;;;;;;;5094597;28;20174;-45
2021/01/19 14:04:24;;;;;;;1.20;0.90;;;;;;;;;;5090976;28;20492;-46
2021/01/19 14:06:50;;;;;;;2.30;0.90;;;;;;;;;;5074435;28;20550;-45
2021/01/19 14:09:16;;;;;;;0.77;0.75;;;;;;;;;;5074256;28;20178;-45
2021/01/19 14:11:42;;;;;;;2.40;0.70;;;;;;;;;;5074932;28;20213;-46
2021/01/19 14:14:15;;;;;;;1.15;0.80;;;;;;;;;;5073598;28;20198;-46
2021/01/19 14:16:46;;;;;;;1.90;0.73;;;;;;;;;;5073377;28;20226;-45
2021/01/19 14:19:12;;;;;;;0.77;0.75;;;;;;;;;;5077650;28;20188;-45
2021/01/19 14:21:38;;;;;;;1.10;0.60;;;;;;;;;;5092825;28;20178;-45
2021/01/19 14:24:04;;;;;;;0.93;0.80;;;;;;;;;;5093538;28;20228;-45
2021/01/19 14:26:34;;;;;;;1.10;0.80;;;;;;;;;;5093488;28;20178;-45
2021/01/19 14:29:01;;;;;;;0.90;0.60;;;;;;;;;;5093701;28;20173;-45
2021/01/19 14:31:34;;;;;;;0.68;0.68;;;;;;;;;;5093876;28;20251;-45
2021/01/19 14:34:00;;;;;;;1.42;0.70;;;;;;;;;;5092601;28;20454;-45
2021/01/19 14:36:26;;;;;;;1.25;0.90;;;;;;;;;;5084487;28;20456;-45
2021/01/19 14:38:52;;;;;;;0.93;0.60;;;;;;;;;;5075323;28;20558;-45
2021/01/19 14:41:18;;;;;;;1.02;0.60;;;;;;;;;;5082750;28;20277;-45
2021/01/19 14:43:45;;;;;;;0.80;0.70;;;;;;;;;;5084263;28;20184;-45
2021/01/19 14:46:11;;;;;;;0.77;0.77;;;;;;;;;;5078477;28;20421;-45